createdAt,value
2018-02-21T00:01:34.314Z,0.80
2018-02-21T00:04:02.544Z,0.80
2018-02-21T00:06:30.030Z,0.70
2018-02-21T00:08:57.502Z,0.70
2018-02-21T00:11:25.745Z,0.70
2018-02-21T00:13:53.210Z,0.70
2018-02-21T00:16:20.692Z,0.80
2018-02-21T00:18:48.922Z,0.90
2018-02-21T00:21:16.408Z,0.90
2018-02-21T00:23:43.898Z,0.80
2018-02-21T00:26:11.382Z,0.80
2018-02-21T00:28:38.854Z,0.70
2018-02-21T00:31:06.349Z,0.70
2018-02-21T00:33:34.579Z,0.50
2018-02-21T00:36:02.101Z,0.50
2018-02-21T00:38:30.344Z,0.40
2018-02-21T00:40:57.816Z,0.40
2018-02-21T00:43:26.057Z,0.30
2018-02-21T00:45:53.538Z,0.30
2018-02-21T00:48:21.005Z,0.30
2018-02-21T00:50:49.258Z,0.30
2018-02-21T00:53:16.737Z,0.30
2018-02-21T00:55:44.209Z,0.30
2018-02-21T00:58:12.454Z,0.50
2018-02-21T01:00:39.945Z,0.50
2018-02-21T01:03:07.424Z,0.60
2018-02-21T01:05:34.917Z,0.70
2018-02-21T01:08:02.393Z,0.70
2018-02-21T01:10:29.878Z,0.70
2018-02-21T01:12:57.352Z,0.70
2018-02-21T01:15:24.836Z,0.80
2018-02-21T01:17:52.314Z,0.80
2018-02-21T01:20:19.813Z,0.70
2018-02-21T01:22:47.292Z,0.80
2018-02-21T01:25:14.777Z,0.80
2018-02-21T01:27:43.014Z,0.80
2018-02-21T01:30:10.503Z,0.80
2018-02-21T01:32:37.982Z,0.70
2018-02-21T01:35:05.448Z,0.80
2018-02-21T01:37:32.928Z,0.80
2018-02-21T01:40:01.156Z,0.80
2018-02-21T01:42:28.631Z,0.80
2018-02-21T01:44:56.116Z,0.80
2018-02-21T01:47:24.365Z,0.90
2018-02-21T01:49:51.844Z,0.80
2018-02-21T01:52:20.088Z,0.90
2018-02-21T01:54:48.321Z,0.90
2018-02-21T01:57:15.815Z,0.80
2018-02-21T01:59:43.272Z,0.90
2018-02-21T02:02:10.748Z,0.90
2018-02-21T02:04:38.228Z,0.90
2018-02-21T02:07:06.472Z,0.90
2018-02-21T02:09:33.948Z,0.90
2018-02-21T02:12:01.426Z,0.90
2018-02-21T02:14:29.660Z,0.90
2018-02-21T02:16:57.144Z,0.90
2018-02-21T02:19:24.609Z,0.90
2018-02-21T02:21:52.856Z,0.80
2018-02-21T02:24:20.319Z,0.80
2018-02-21T02:26:47.805Z,0.80
2018-02-21T02:29:16.023Z,0.80
2018-02-21T02:31:43.497Z,0.80
2018-02-21T02:34:10.951Z,0.80
2018-02-21T02:36:38.426Z,0.90
2018-02-21T02:39:17.545Z,0.80
2018-02-21T02:41:45.005Z,0.80
2018-02-21T02:44:12.456Z,0.80
2018-02-21T02:46:39.925Z,0.70
2018-02-21T02:49:07.385Z,0.80
2018-02-21T02:51:34.851Z,0.80
2018-02-21T02:54:02.318Z,0.80
2018-02-21T02:56:30.557Z,0.80
2018-02-21T02:58:58.784Z,0.80
2018-02-21T03:01:27.066Z,0.70
2018-02-21T03:03:54.482Z,0.70
2018-02-21T03:06:21.947Z,0.60
2018-02-21T03:08:49.407Z,0.70
2018-02-21T03:11:16.876Z,0.70
2018-02-21T03:13:44.343Z,0.70
2018-02-21T03:16:12.573Z,0.70
2018-02-21T03:18:40.048Z,0.70
2018-02-21T03:21:07.500Z,0.80
2018-02-21T03:23:34.967Z,0.80
2018-02-21T03:26:02.429Z,0.80
2018-02-21T03:28:29.899Z,0.80
2018-02-21T03:30:58.130Z,0.80
2018-02-21T03:33:25.591Z,0.80
2018-02-21T03:35:53.061Z,0.80
2018-02-21T03:38:20.528Z,0.80
2018-02-21T03:40:48.039Z,0.80
2018-02-21T03:43:15.508Z,0.70
2018-02-21T03:45:42.968Z,0.70
2018-02-21T03:48:10.437Z,0.80
2018-02-21T03:50:38.656Z,0.70
2018-02-21T03:53:06.895Z,0.70
2018-02-21T03:55:34.344Z,0.70
2018-02-21T03:58:01.811Z,0.70
2018-02-21T04:00:29.275Z,0.70
2018-02-21T04:02:56.734Z,0.70
2018-02-21T04:05:24.195Z,0.70
2018-02-21T04:07:51.663Z,0.70
2018-02-21T04:10:19.121Z,0.70
2018-02-21T04:12:46.589Z,0.80
2018-02-21T04:15:14.815Z,0.80
2018-02-21T04:17:42.278Z,0.80
2018-02-21T04:20:09.738Z,0.80
2018-02-21T04:22:37.204Z,0.80
2018-02-21T04:25:04.660Z,0.80
2018-02-21T04:27:32.126Z,0.80
2018-02-21T04:29:59.575Z,0.80
2018-02-21T04:32:27.045Z,0.80
2018-02-21T04:34:54.499Z,0.70
2018-02-21T04:37:21.963Z,0.70
2018-02-21T04:39:49.427Z,0.70
2018-02-21T04:42:16.896Z,0.70
2018-02-21T04:44:45.130Z,0.70
2018-02-21T04:47:12.591Z,0.60
2018-02-21T04:49:40.061Z,0.70
2018-02-21T04:52:07.521Z,0.70
2018-02-21T04:54:35.802Z,0.70
2018-02-21T04:57:09.049Z,0.80
2018-02-21T04:59:37.431Z,0.70
2018-02-21T05:02:04.886Z,0.70
2018-02-21T05:04:32.360Z,0.80
2018-02-21T05:06:59.831Z,0.80
2018-02-21T05:09:27.297Z,0.80
2018-02-21T05:11:54.762Z,0.90
2018-02-21T05:14:22.223Z,0.90
2018-02-21T05:16:49.681Z,0.80
2018-02-21T05:19:17.154Z,0.80
2018-02-21T05:21:45.371Z,0.70
2018-02-21T05:24:12.849Z,0.70
2018-02-21T05:26:40.310Z,0.80
2018-02-21T05:29:07.780Z,0.80
2018-02-21T05:31:35.264Z,0.80
2018-02-21T05:34:03.497Z,0.90
2018-02-21T05:36:30.967Z,0.90
2018-02-21T05:38:58.441Z,0.90
2018-02-21T05:41:25.952Z,0.90
2018-02-21T05:43:53.430Z,0.90
2018-02-21T05:46:20.899Z,0.90
2018-02-21T05:48:48.471Z,0.90
2018-02-21T05:51:16.718Z,0.90
2018-02-21T05:53:44.393Z,0.90
2018-02-21T05:56:11.886Z,0.90
2018-02-21T05:58:40.128Z,0.90
2018-02-21T06:01:07.603Z,0.90
2018-02-21T06:03:35.854Z,0.80
2018-02-21T06:06:03.390Z,0.80
2018-02-21T06:08:30.940Z,0.80
2018-02-21T06:10:58.402Z,0.80
2018-02-21T06:13:25.900Z,0.70
2018-02-21T06:15:53.388Z,0.70
2018-02-21T06:18:21.705Z,0.70
2018-02-21T06:20:49.184Z,0.70
2018-02-21T06:23:16.686Z,0.70
2018-02-21T06:25:44.225Z,0.70
2018-02-21T06:28:12.522Z,0.60
2018-02-21T06:30:40.181Z,0.60
2018-02-21T06:33:07.717Z,0.50
2018-02-21T06:35:35.221Z,0.50
2018-02-21T06:38:02.674Z,0.40
2018-02-21T06:40:30.149Z,0.40
2018-02-21T06:42:57.630Z,0.40
2018-02-21T06:45:25.102Z,0.50
2018-02-21T06:47:52.555Z,0.50
2018-02-21T06:50:20.034Z,0.50
2018-02-21T06:52:48.257Z,0.70
2018-02-21T06:55:15.731Z,0.70
2018-02-21T06:57:43.192Z,0.70
2018-02-21T07:00:10.796Z,0.70
2018-02-21T07:02:38.322Z,0.80
2018-02-21T07:05:05.787Z,0.80
2018-02-21T07:07:33.252Z,0.80
2018-02-21T07:10:00.717Z,0.80
2018-02-21T07:12:28.944Z,0.90
2018-02-21T07:14:56.441Z,0.80
2018-02-21T07:17:23.896Z,0.90
2018-02-21T07:19:51.376Z,0.90
2018-02-21T07:22:19.588Z,0.90
2018-02-21T07:24:47.071Z,0.90
2018-02-21T07:27:14.544Z,0.90
2018-02-21T07:29:42.104Z,0.80
2018-02-21T07:32:09.564Z,0.70
2018-02-21T07:34:37.028Z,0.70
2018-02-21T07:37:05.248Z,0.80
2018-02-21T07:39:32.716Z,0.80
2018-02-21T07:42:00.177Z,0.70
2018-02-21T07:44:27.644Z,0.80
2018-02-21T07:46:55.109Z,0.80
2018-02-21T07:49:22.584Z,0.80
2018-02-21T07:51:50.036Z,0.80
2018-02-21T07:54:17.573Z,0.90
2018-02-21T07:56:44.985Z,0.90
2018-02-21T07:59:12.453Z,0.90
2018-02-21T08:01:39.914Z,1.00
2018-02-21T08:04:07.390Z,1.10
2018-02-21T08:06:34.899Z,1.20
2018-02-21T08:09:02.316Z,1.30
2018-02-21T08:11:29.792Z,1.40
2018-02-21T08:13:57.239Z,1.50
2018-02-21T08:16:24.704Z,1.50
2018-02-21T08:18:52.166Z,1.50
2018-02-21T08:21:19.631Z,1.70
2018-02-21T08:23:47.083Z,1.80
2018-02-21T08:26:14.547Z,1.90
2018-02-21T08:28:42.009Z,1.90
2018-02-21T08:31:10.234Z,2.10
2018-02-21T08:33:37.700Z,2.10
2018-02-21T08:36:05.167Z,2.20
2018-02-21T08:38:32.630Z,2.20
2018-02-21T08:41:00.101Z,2.30
2018-02-21T08:43:27.553Z,2.40
2018-02-21T08:45:55.019Z,2.50
2018-02-21T08:48:22.477Z,2.50
2018-02-21T08:50:49.949Z,2.60
2018-02-21T08:53:18.171Z,2.60
2018-02-21T08:55:45.637Z,2.60
2018-02-21T08:58:13.108Z,2.80
2018-02-21T09:00:40.566Z,3.20
2018-02-21T09:05:42.844Z,6.60
2018-02-21T09:08:10.303Z,6.60
2018-02-21T09:10:37.776Z,7.30
2018-02-21T09:13:06.292Z,8.00
2018-02-21T09:15:33.771Z,8.50
2018-02-21T09:18:01.226Z,8.40
2018-02-21T09:20:28.692Z,8.60
2018-02-21T09:22:56.166Z,8.80
2018-02-21T09:25:23.637Z,9.20
2018-02-21T09:27:51.092Z,9.80
2018-02-21T09:30:18.573Z,10.30
2018-02-21T09:32:46.037Z,10.60
2018-02-21T09:35:13.510Z,10.80
2018-02-21T09:37:41.746Z,11.00
2018-02-21T09:40:09.248Z,11.00
2018-02-21T09:42:37.469Z,11.20
2018-02-21T09:45:04.986Z,11.20
2018-02-21T09:47:32.470Z,11.70
2018-02-21T09:49:59.943Z,12.10
2018-02-21T09:52:27.437Z,12.60
2018-02-21T09:54:55.730Z,13.30
2018-02-21T09:57:23.255Z,13.20
2018-02-21T09:59:50.755Z,13.40
2018-02-21T10:02:18.288Z,13.20
2018-02-21T10:04:46.571Z,13.70
2018-02-21T10:07:14.862Z,13.70
2018-02-21T10:09:42.414Z,13.60
2018-02-21T10:12:10.729Z,13.70
2018-02-21T10:14:38.268Z,13.70
2018-02-21T10:17:05.786Z,13.80
2018-02-21T10:19:33.315Z,13.60
2018-02-21T10:22:00.849Z,13.30
2018-02-21T10:24:28.366Z,12.30
2018-02-21T10:26:55.901Z,11.10
2018-02-21T10:29:23.413Z,10.90
2018-02-21T10:31:50.948Z,11.40
2018-02-21T10:34:19.261Z,12.20
2018-02-21T10:36:46.777Z,12.10
2018-02-21T10:39:14.277Z,12.50
2018-02-21T10:41:41.821Z,12.90
2018-02-21T10:44:09.328Z,12.70
2018-02-21T10:46:37.622Z,12.10
2018-02-21T10:49:05.139Z,12.10
2018-02-21T10:51:32.655Z,11.20
2018-02-21T10:54:00.177Z,10.00
2018-02-21T10:56:27.686Z,8.80
2018-02-21T10:58:55.950Z,7.60
2018-02-21T11:01:25.838Z,7.20
2018-02-21T11:03:53.316Z,7.20
2018-02-21T11:06:20.814Z,7.00
2018-02-21T11:08:48.298Z,6.80
2018-02-21T11:11:15.814Z,6.40
2018-02-21T11:13:44.051Z,6.10
2018-02-21T11:16:11.534Z,6.10
2018-02-21T11:18:39.776Z,6.00
2018-02-21T11:21:07.256Z,6.00
2018-02-21T11:23:34.804Z,5.70
2018-02-21T11:26:02.223Z,5.50
2018-02-21T11:28:29.698Z,5.40
2018-02-21T11:30:57.176Z,5.50
2018-02-21T11:33:24.660Z,5.30
2018-02-21T11:35:52.909Z,5.70
2018-02-21T11:38:20.401Z,5.70
2018-02-21T11:40:48.646Z,7.40
2018-02-21T11:43:16.121Z,7.40
2018-02-21T11:45:43.589Z,8.30
2018-02-21T11:48:11.825Z,9.10
2018-02-21T11:50:39.317Z,9.10
2018-02-21T11:53:07.615Z,9.50
2018-02-21T11:55:35.057Z,9.50
2018-02-21T11:58:02.555Z,10.00
2018-02-21T12:00:30.042Z,9.90
2018-02-21T12:02:57.522Z,9.50
2018-02-21T12:05:25.764Z,9.50
2018-02-21T12:07:53.246Z,9.50
2018-02-21T12:10:20.733Z,9.20
2018-02-21T12:12:48.968Z,7.90
2018-02-21T12:15:16.449Z,7.80
2018-02-21T12:17:44.702Z,6.90
2018-02-21T12:20:12.175Z,6.90
2018-02-21T12:22:39.661Z,6.60
2018-02-21T12:25:07.139Z,6.50
2018-02-21T12:27:34.618Z,6.40
2018-02-21T12:30:02.100Z,6.20
2018-02-21T12:35:26.249Z,5.80
2018-02-21T12:37:53.719Z,5.50
2018-02-21T12:40:26.991Z,5.30
2018-02-21T12:42:54.461Z,5.30
2018-02-21T12:45:21.929Z,5.30
2018-02-21T12:47:49.396Z,5.30
2018-02-21T12:50:16.885Z,5.30
2018-02-21T12:52:44.343Z,5.50
2018-02-21T12:55:11.803Z,5.70
2018-02-21T12:57:40.042Z,6.20
2018-02-21T13:00:07.537Z,6.20
2018-02-21T13:02:34.973Z,6.40
2018-02-21T13:05:02.454Z,6.30
2018-02-21T13:07:30.694Z,6.00
2018-02-21T13:09:58.157Z,6.00
2018-02-21T13:12:25.626Z,6.00
2018-02-21T13:14:53.101Z,5.90
2018-02-21T13:17:21.333Z,5.70
2018-02-21T13:19:48.790Z,5.70
2018-02-21T13:22:16.259Z,5.30
2018-02-21T13:24:43.716Z,4.90
2018-02-21T13:27:11.180Z,4.80
2018-02-21T13:29:38.659Z,4.70
2018-02-21T13:32:06.123Z,4.70
2018-02-21T13:34:34.355Z,4.90
2018-02-21T13:37:01.830Z,4.80
2018-02-21T13:39:29.296Z,4.90
2018-02-21T13:41:56.754Z,5.10
2018-02-21T13:44:24.231Z,5.00
2018-02-21T13:46:52.458Z,5.20
2018-02-21T13:49:19.929Z,5.20
2018-02-21T13:51:47.388Z,5.30
2018-02-21T13:54:14.849Z,5.30
2018-02-21T13:56:42.325Z,5.30
2018-02-21T13:59:09.788Z,5.20
2018-02-21T14:01:37.251Z,5.10
2018-02-21T14:04:05.488Z,5.10
2018-02-21T14:06:32.956Z,5.10
2018-02-21T14:09:00.426Z,5.00
2018-02-21T14:11:27.900Z,4.90
2018-02-21T14:13:56.147Z,5.10
2018-02-21T14:16:23.601Z,5.00
2018-02-21T14:18:51.067Z,5.10
2018-02-21T14:21:18.520Z,5.10
2018-02-21T14:23:46.057Z,4.90
2018-02-21T14:26:13.527Z,4.90
2018-02-21T14:28:41.005Z,4.70
2018-02-21T14:31:08.478Z,4.70
2018-02-21T14:33:36.720Z,4.70
2018-02-21T14:36:04.204Z,4.70
2018-02-21T14:38:31.673Z,4.70
2018-02-21T14:40:59.908Z,4.60
2018-02-21T14:43:27.398Z,4.60
2018-02-21T14:45:54.876Z,4.70
2018-02-21T14:48:22.373Z,4.70
2018-02-21T14:50:49.851Z,4.80
2018-02-21T14:53:17.333Z,4.80
2018-02-21T14:55:45.593Z,4.80
2018-02-21T14:58:13.085Z,4.80
2018-02-21T15:00:41.473Z,4.70
2018-02-21T15:03:08.953Z,4.70
2018-02-21T15:05:36.446Z,4.60
2018-02-21T15:08:04.224Z,4.60
2018-02-21T15:10:32.525Z,4.50
2018-02-21T15:13:00.077Z,4.50
2018-02-21T15:15:28.563Z,4.50
2018-02-21T15:17:56.130Z,4.50
2018-02-21T15:20:23.668Z,4.40
2018-02-21T15:22:52.002Z,4.40
2018-02-21T15:25:19.524Z,4.40
2018-02-21T15:27:47.133Z,4.40
2018-02-21T15:30:14.930Z,4.30
2018-02-21T15:32:42.602Z,4.30
2018-02-21T15:35:10.905Z,4.20
2018-02-21T15:37:38.449Z,4.20
2018-02-21T15:40:06.012Z,4.20
2018-02-21T15:42:33.573Z,4.10
2018-02-21T15:45:01.117Z,4.10
2018-02-21T15:47:28.779Z,4.10
2018-02-21T15:49:56.549Z,4.10
2018-02-21T15:52:24.098Z,4.00
2018-02-21T15:54:52.432Z,3.90
2018-02-21T15:57:19.951Z,3.90
2018-02-21T15:59:47.530Z,3.90
2018-02-21T16:02:15.066Z,3.80
2018-02-21T16:04:42.601Z,3.70
2018-02-21T16:07:10.922Z,3.70
2018-02-21T16:09:38.549Z,3.60
2018-02-21T16:12:06.867Z,3.50
2018-02-21T16:14:34.388Z,3.50
2018-02-21T16:17:01.916Z,3.50
2018-02-21T16:19:29.507Z,3.40
2018-02-21T16:21:57.054Z,3.40
2018-02-21T16:24:43.755Z,3.30
2018-02-21T16:27:12.097Z,3.30
2018-02-21T16:29:39.625Z,3.30
2018-02-21T16:32:07.221Z,3.30
2018-02-21T16:34:34.741Z,3.20
2018-02-21T16:37:02.330Z,3.10
2018-02-21T16:39:30.696Z,3.00
2018-02-21T16:41:58.207Z,3.00
2018-02-21T16:44:25.737Z,3.00
2018-02-21T16:46:53.324Z,2.80
2018-02-21T16:49:20.853Z,2.70
2018-02-21T16:51:48.411Z,2.70
2018-02-21T16:54:16.894Z,2.60
2018-02-21T16:56:44.480Z,2.60
2018-02-21T16:59:12.050Z,2.50
2018-02-21T17:01:39.545Z,2.40
2018-02-21T17:04:07.170Z,2.40
2018-02-21T17:06:34.693Z,2.30
2018-02-21T17:09:02.233Z,2.30
2018-02-21T17:11:29.754Z,2.30
2018-02-21T17:13:58.077Z,2.30
2018-02-21T17:18:59.533Z,2.20
2018-02-21T17:21:27.104Z,2.20
2018-02-21T17:23:54.633Z,2.10
2018-02-21T17:26:44.979Z,2.00
2018-02-21T17:29:15.618Z,2.00
2018-02-21T17:31:48.676Z,2.00
2018-02-21T17:34:31.653Z,1.90
2018-02-21T17:37:01.873Z,1.90
2018-02-21T17:39:41.315Z,1.80
2018-02-21T17:42:45.962Z,1.80
2018-02-21T17:48:21.535Z,1.70
2018-02-21T17:50:56.691Z,1.70
2018-02-21T17:53:31.848Z,1.60
2018-02-21T17:55:59.651Z,1.60
2018-02-21T17:58:27.206Z,1.60
2018-02-21T18:00:54.765Z,1.50
2018-02-21T18:03:22.297Z,1.40
2018-02-21T18:05:49.873Z,1.30
2018-02-21T18:08:17.424Z,1.30
2018-02-21T18:10:45.126Z,1.20
2018-02-21T18:13:12.776Z,1.10
2018-02-21T18:15:40.650Z,1.10
2018-02-21T18:18:08.311Z,1.10
2018-02-21T18:20:35.919Z,1.20
2018-02-21T18:23:03.535Z,1.20
2018-02-21T18:25:31.079Z,1.20
2018-02-21T18:27:59.376Z,1.40
2018-02-21T18:30:26.941Z,1.40
2018-02-21T18:32:54.464Z,1.50
2018-02-21T18:35:22.046Z,1.50
2018-02-21T18:37:49.565Z,1.50
2018-02-21T18:40:17.096Z,1.60
2018-02-21T18:42:45.440Z,1.60
2018-02-21T18:45:12.957Z,1.60
2018-02-21T18:47:40.484Z,1.60
2018-02-21T18:50:08.008Z,1.60
2018-02-21T18:52:35.576Z,1.60
2018-02-21T18:57:37.106Z,1.50
2018-02-21T19:00:04.644Z,1.50
2018-02-21T19:02:32.885Z,1.40
2018-02-21T19:05:00.530Z,1.40
2018-02-21T19:07:28.047Z,1.30
2018-02-21T19:09:56.353Z,1.20
2018-02-21T19:12:23.899Z,1.20
2018-02-21T19:14:51.406Z,1.10
2018-02-21T19:17:18.930Z,1.10
2018-02-21T19:19:46.427Z,1.10
2018-02-21T19:22:13.979Z,1.00
2018-02-21T19:24:41.518Z,1.00
2018-02-21T19:27:09.041Z,1.00
2018-02-21T19:29:36.558Z,0.90
2018-02-21T19:32:04.142Z,0.90
2018-02-21T19:34:32.420Z,0.80
2018-02-21T19:37:00.716Z,0.70
2018-02-21T19:39:28.280Z,0.70
2018-02-21T19:41:55.816Z,0.70
2018-02-21T19:44:24.139Z,0.70
2018-02-21T19:46:51.750Z,0.70
2018-02-21T19:49:19.324Z,0.80
2018-02-21T19:51:47.620Z,0.80
2018-02-21T19:54:15.201Z,0.80
2018-02-21T19:56:42.767Z,0.70
2018-02-21T19:59:10.270Z,0.60
2018-02-21T20:01:38.606Z,0.70
2018-02-21T20:04:06.176Z,0.60
2018-02-21T20:06:33.752Z,0.60
2018-02-21T20:09:01.320Z,0.50
2018-02-21T20:11:29.008Z,0.50
2018-02-21T20:13:56.530Z,0.50
2018-02-21T20:16:24.084Z,0.40
2018-02-21T20:18:51.642Z,0.40
2018-02-21T20:21:19.189Z,0.40
2018-02-21T20:23:46.756Z,0.30
2018-02-21T20:26:14.332Z,0.30
2018-02-21T20:28:41.890Z,0.20
2018-02-21T20:31:09.482Z,0.20
2018-02-21T20:33:37.782Z,0.10
2018-02-21T20:36:05.370Z,0.10
2018-02-21T20:38:32.932Z,0.10
2018-02-21T20:41:00.486Z,0.10
2018-02-21T20:43:28.043Z,0.00
2018-02-21T20:45:55.548Z,0.10
2018-02-21T20:48:23.217Z,0.00
2018-02-21T20:50:50.896Z,0.00
2018-02-21T20:53:18.596Z,-0.10
2018-02-21T20:55:46.413Z,-0.20
2018-02-21T20:58:14.748Z,-0.40
2018-02-21T21:00:42.347Z,-0.40
2018-02-21T21:03:09.938Z,-0.40
2018-02-21T21:05:37.482Z,-0.50
2018-02-21T21:08:05.029Z,-0.50
2018-02-21T21:10:33.344Z,-0.50
2018-02-21T21:13:00.900Z,-0.50
2018-02-21T21:15:28.469Z,-0.50
2018-02-21T21:17:56.055Z,-0.40
2018-02-21T21:20:23.629Z,-0.30
2018-02-21T21:22:51.968Z,-0.50
2018-02-21T21:25:19.547Z,-0.50
2018-02-21T21:27:47.108Z,-0.60
2018-02-21T21:30:14.690Z,-0.50
2018-02-21T21:32:43.013Z,-0.60
2018-02-21T21:35:10.536Z,-0.60
2018-02-21T21:37:38.835Z,-0.60
2018-02-21T21:40:06.426Z,-0.60
2018-02-21T21:42:34.004Z,-0.70
2018-02-21T21:45:01.587Z,-0.70
2018-02-21T21:47:29.896Z,-0.70
2018-02-21T21:49:57.453Z,-0.70
2018-02-21T21:52:25.021Z,-0.70
2018-02-21T21:54:52.566Z,-0.70
2018-02-21T21:57:20.152Z,-0.80
2018-02-21T21:59:47.708Z,-0.80
2018-02-21T22:02:15.285Z,-0.80
2018-02-21T22:04:42.869Z,-0.70
2018-02-21T22:07:10.446Z,-0.70
2018-02-21T22:09:38.784Z,-0.80
2018-02-21T22:12:06.363Z,-0.80
2018-02-21T22:14:33.931Z,-0.80
2018-02-21T22:17:01.470Z,-0.90
2018-02-21T22:19:29.038Z,-0.80
2018-02-21T22:21:56.595Z,-0.80
2018-02-21T22:24:24.142Z,-0.80
2018-02-21T22:26:51.704Z,-0.80
2018-02-21T22:29:19.300Z,-0.90
2018-02-21T22:31:47.628Z,-1.00
2018-02-21T22:34:15.194Z,-1.00
2018-02-21T22:36:42.745Z,-1.00
2018-02-21T22:39:11.087Z,-1.00
2018-02-21T22:41:38.645Z,-1.10
2018-02-21T22:44:06.176Z,-1.00
2018-02-21T22:46:33.736Z,-0.90
2018-02-21T22:49:01.279Z,-0.80
2018-02-21T22:51:28.864Z,-0.80
2018-02-21T22:53:56.402Z,-0.90
2018-02-21T22:56:23.948Z,-0.90
2018-02-21T22:58:51.513Z,-0.90
2018-02-21T23:01:19.043Z,-0.90
2018-02-21T23:03:46.622Z,-0.80
2018-02-21T23:06:14.178Z,-0.80
2018-02-21T23:08:41.750Z,-0.80
2018-02-21T23:11:09.311Z,-0.70
2018-02-21T23:13:36.905Z,-0.70
2018-02-21T23:16:05.216Z,-0.70
2018-02-21T23:18:32.790Z,-0.70
2018-02-21T23:21:00.361Z,-0.70
2018-02-21T23:23:27.895Z,-0.70
2018-02-21T23:25:55.456Z,-0.70
2018-02-21T23:28:23.012Z,-0.70
2018-02-21T23:30:50.557Z,-0.60
2018-02-21T23:33:18.150Z,-0.60
2018-02-21T23:35:45.683Z,-0.60
2018-02-21T23:38:13.238Z,-0.70
2018-02-21T23:40:41.599Z,-0.70
2018-02-21T23:43:09.122Z,-0.70
2018-02-21T23:45:36.701Z,-0.70
2018-02-21T23:48:04.238Z,-0.70
2018-02-21T23:50:31.801Z,-0.70
2018-02-21T23:52:59.347Z,-0.60
2018-02-21T23:55:26.914Z,-0.60
2018-02-21T23:57:54.480Z,-0.60
